Time;durP1;ratioP1;P1;durP2;ratioP2;P2;SDS_P1;SDS_P2;PMS_P1;PMS_P2;Temp;Humidity;BMP_temperature;BMP_pressure;BME280_temperature;BME280_humidity;BME280_pressure;Samples;Min_cycle;Max_cycle;Signal;HPM_P1;HPM_P2
2022/04/27 00:00:34;;;;;;;9.77;3.80;;;6.30;99.90;;;;;;4998002;28;20198;-62
2022/04/27 00:03:02;;;;;;;6.85;3.22;;;6.30;99.90;;;;;;4996048;28;20030;-64
2022/04/27 00:05:28;;;;;;;10.05;3.88;;;6.30;99.90;;;;;;4998600;28;20034;-61
2022/04/27 00:07:54;;;;;;;10.25;3.28;;;6.30;99.90;;;;;;4996897;28;20513;-61
2022/04/27 00:10:20;;;;;;;6.72;3.15;;;6.30;99.90;;;;;;4992441;28;20041;-62
2022/04/27 00:12:47;;;;;;;12.90;3.75;;;6.30;99.90;;;;;;4999876;28;20057;-61
2022/04/27 00:15:13;;;;;;;8.88;3.83;;;6.20;99.90;;;;;;4998512;28;20030;-62
2022/04/27 00:17:39;;;;;;;26.17;6.05;;;6.20;99.90;;;;;;4999851;28;20042;-61
2022/04/27 00:20:07;;;;;;;9.48;3.53;;;6.20;99.90;;;;;;4996498;28;20042;-63
2022/04/27 00:22:33;;;;;;;7.47;3.72;;;6.20;99.90;;;;;;4994273;28;20367;-61
2022/04/27 00:25:00;;;;;;;9.65;4.13;;;6.20;99.90;;;;;;5000404;28;20933;-63
2022/04/27 00:27:29;;;;;;;7.90;4.38;;;6.10;99.90;;;;;;4998320;28;20387;-62
2022/04/27 00:29:56;;;;;;;7.78;3.83;;;6.10;99.90;;;;;;4997206;28;20054;-61
2022/04/27 00:32:22;;;;;;;6.65;3.25;;;6.10;99.90;;;;;;4999129;28;20053;-62
2022/04/27 00:34:47;;;;;;;10.95;3.42;;;6.10;99.90;;;;;;4996439;28;20034;-61
2022/04/27 00:37:13;;;;;;;12.45;4.43;;;6.10;99.90;;;;;;4999030;28;20045;-61
2022/04/27 00:39:38;;;;;;;10.00;3.92;;;6.10;99.90;;;;;;4997621;28;20390;-62
2022/04/27 00:42:24;;;;;;;10.50;4.30;;;6.00;99.90;;;;;;4997854;28;20041;-61
2022/04/27 00:44:50;;;;;;;8.57;3.70;;;6.00;99.90;;;;;;4991603;28;20033;-62
2022/04/27 00:47:17;;;;;;;10.63;4.05;;;6.00;99.90;;;;;;4998972;28;20490;-63
2022/04/27 00:49:48;;;;;;;10.23;4.28;;;6.00;99.90;;;;;;4995019;28;20046;-61
2022/04/27 00:52:15;;;;;;;9.10;3.92;;;6.00;99.90;;;;;;4994559;28;20037;-63
2022/04/27 00:54:43;;;;;;;13.00;4.32;;;6.00;99.90;;;;;;4996577;28;20513;-60
2022/04/27 00:57:09;;;;;;;12.82;4.40;;;5.90;99.90;;;;;;4998408;28;20034;-61
2022/04/27 00:59:35;;;;;;;11.77;5.07;;;5.90;99.90;;;;;;4997701;28;20041;-63
2022/04/27 01:02:01;;;;;;;10.65;4.40;;;5.90;99.90;;;;;;4997189;28;20026;-62
2022/04/27 01:04:28;;;;;;;11.40;4.28;;;5.90;99.90;;;;;;4996463;28;20038;-61
2022/04/27 01:06:54;;;;;;;8.15;4.30;;;5.90;99.90;;;;;;4996747;28;20034;-61
2022/04/27 01:09:23;;;;;;;13.43;4.53;;;5.80;99.90;;;;;;4995195;28;20045;-61
2022/04/27 01:11:48;;;;;;;11.30;4.82;;;5.80;99.90;;;;;;4995977;28;20044;-61
2022/04/27 01:14:14;;;;;;;14.50;4.70;;;5.80;99.90;;;;;;4997538;28;20030;-62
2022/04/27 01:16:39;;;;;;;13.00;5.45;;;5.80;99.90;;;;;;4996329;28;20030;-61
2022/04/27 01:19:05;;;;;;;9.88;4.50;;;5.80;99.90;;;;;;4998016;28;20038;-61
2022/04/27 01:21:31;;;;;;;12.70;5.78;;;5.80;99.90;;;;;;4997686;28;20108;-61
2022/04/27 01:23:56;;;;;;;15.18;5.72;;;5.80;99.90;;;;;;4996003;28;20034;-61
2022/04/27 01:26:22;;;;;;;8.38;4.80;;;5.80;99.90;;;;;;4998440;28;20041;-62
2022/04/27 01:28:48;;;;;;;13.13;4.88;;;5.80;99.90;;;;;;4995975;28;20113;-61
2022/04/27 01:31:14;;;;;;;11.82;6.47;;;5.70;99.90;;;;;;4997289;28;20026;-61
2022/04/27 01:33:40;;;;;;;12.40;5.88;;;5.80;99.90;;;;;;4995803;28;20138;-61
2022/04/27 01:36:08;;;;;;;17.55;5.85;;;5.70;99.90;;;;;;4997795;28;20035;-61
2022/04/27 01:38:38;;;;;;;17.13;5.53;;;5.70;99.90;;;;;;4999470;28;20490;-62
2022/04/27 01:41:04;;;;;;;14.73;5.93;;;5.70;99.90;;;;;;4997024;28;20030;-61
2022/04/27 01:43:30;;;;;;;14.65;5.95;;;5.70;99.90;;;;;;4998059;28;20042;-61
2022/04/27 01:45:56;;;;;;;14.23;5.68;;;5.70;99.90;;;;;;4996407;28;20089;-61
2022/04/27 01:48:22;;;;;;;15.20;6.28;;;5.70;99.90;;;;;;4996840;28;20045;-61
2022/04/27 01:50:48;;;;;;;14.48;5.78;;;5.70;99.90;;;;;;4995600;28;20119;-61
2022/04/27 01:55:58;;;;;;;16.27;6.05;;;5.70;99.90;;;;;;4993698;28;20555;-61
2022/04/27 01:58:24;;;;;;;16.25;6.00;;;5.70;99.90;;;;;;4995847;28;20141;-60
2022/04/27 02:00:50;;;;;;;12.57;5.28;;;5.70;99.90;;;;;;4999142;28;20042;-63
2022/04/27 02:03:18;;;;;;;12.55;5.75;;;5.70;99.90;;;;;;4994521;28;20043;-61
2022/04/27 02:05:44;;;;;;;10.80;5.65;;;5.70;99.90;;;;;;4991732;28;20510;-61
2022/04/27 02:08:10;;;;;;;17.17;4.95;;;5.70;99.90;;;;;;4995575;28;20038;-62
2022/04/27 02:10:36;;;;;;;12.55;5.32;;;5.70;99.90;;;;;;4996548;28;20030;-63
2022/04/27 02:13:06;;;;;;;14.90;5.63;;;5.80;99.90;;;;;;4995807;28;20537;-61
2022/04/27 02:15:32;;;;;;;13.77;5.63;;;5.80;99.90;;;;;;4997078;28;20050;-61
2022/04/27 02:17:58;;;;;;;13.30;5.38;;;5.80;99.90;;;;;;4997284;28;20167;-61
2022/04/27 02:20:24;;;;;;;15.02;5.05;;;5.80;99.90;;;;;;4996125;28;20108;-61
2022/04/27 02:22:51;;;;;;;13.35;5.55;;;5.70;99.90;;;;;;5000162;28;20069;-61
2022/04/27 02:25:17;;;;;;;14.07;6.22;;;5.80;99.90;;;;;;4998064;28;20565;-62
2022/04/27 02:27:43;;;;;;;12.15;5.38;;;5.70;99.90;;;;;;5002321;28;20045;-62
2022/04/27 02:30:10;;;;;;;11.88;5.18;;;5.70;99.90;;;;;;4998743;28;20038;-61
2022/04/27 02:32:37;;;;;;;15.57;5.97;;;5.60;99.90;;;;;;4997639;28;20038;-61
2022/04/27 02:35:03;;;;;;;17.50;6.20;;;5.60;99.90;;;;;;5000490;28;20037;-66
2022/04/27 02:37:30;;;;;;;14.90;5.85;;;5.50;99.90;;;;;;5000393;28;20034;-61
2022/04/27 02:39:56;;;;;;;18.63;5.65;;;5.50;99.90;;;;;;4999608;28;20177;-61
2022/04/27 02:42:22;;;;;;;16.60;5.97;;;5.50;99.90;;;;;;5003190;28;20521;-61
2022/04/27 02:44:48;;;;;;;14.55;6.00;;;5.50;99.90;;;;;;4997763;28;20030;-61
2022/04/27 02:47:14;;;;;;;17.05;6.13;;;5.40;99.90;;;;;;5001189;28;20026;-62
2022/04/27 02:52:40;;;;;;;16.40;6.00;;;5.40;99.90;;;;;;4939172;28;20043;-62
2022/04/27 02:55:06;;;;;;;12.60;5.80;;;5.40;99.90;;;;;;4983975;28;20125;-61
2022/04/27 02:57:32;;;;;;;17.10;5.47;;;5.40;99.90;;;;;;5000468;28;20383;-62
2022/04/27 02:59:57;;;;;;;12.88;5.75;;;5.40;99.90;;;;;;4997578;28;20041;-61
2022/04/27 03:02:23;;;;;;;9.77;4.78;;;5.40;99.90;;;;;;4998322;28;20042;-60
2022/04/27 03:04:48;;;;;;;12.13;5.38;;;5.30;99.90;;;;;;5000824;28;20030;-60
2022/04/27 03:07:14;;;;;;;11.48;4.95;;;5.30;99.90;;;;;;4997405;28;20041;-62
2022/04/27 03:09:39;;;;;;;11.82;5.32;;;5.20;99.90;;;;;;4998401;28;20038;-60
2022/04/27 03:12:05;;;;;;;13.88;5.68;;;5.20;99.90;;;;;;5001527;28;20510;-62
2022/04/27 03:14:31;;;;;;;12.43;5.75;;;5.10;99.90;;;;;;4998801;28;20068;-61
2022/04/27 03:16:57;;;;;;;15.02;5.90;;;5.10;99.90;;;;;;4999533;28;20034;-63
2022/04/27 03:19:23;;;;;;;13.93;4.82;;;5.10;99.90;;;;;;4998606;28;20034;-61
2022/04/27 03:21:50;;;;;;;11.85;5.05;;;5.00;99.90;;;;;;5000526;28;20049;-61
2022/04/27 03:24:15;;;;;;;12.38;4.45;;;5.00;99.90;;;;;;4996603;28;20070;-62
2022/04/27 03:26:41;;;;;;;9.30;4.35;;;5.00;99.90;;;;;;4995324;28;20061;-61
2022/04/27 03:29:06;;;;;;;11.65;4.72;;;4.90;99.90;;;;;;4997467;28;20096;-61
2022/04/27 03:31:32;;;;;;;15.82;5.10;;;4.90;99.90;;;;;;4997252;28;20116;-61
2022/04/27 03:33:58;;;;;;;14.23;4.82;;;4.90;99.90;;;;;;4996474;28;20486;-61
2022/04/27 03:36:24;;;;;;;16.75;5.35;;;4.80;99.90;;;;;;4999031;28;20068;-62
2022/04/27 03:38:50;;;;;;;12.93;5.65;;;4.80;99.90;;;;;;5001751;28;20117;-63
2022/04/27 03:41:20;;;;;;;15.32;5.97;;;4.80;99.90;;;;;;4997490;28;20113;-62
2022/04/27 03:43:47;;;;;;;16.97;6.63;;;4.80;99.90;;;;;;4999771;28;20034;-61
2022/04/27 03:46:13;;;;;;;13.27;5.50;;;4.80;99.90;;;;;;5000434;28;20041;-61
2022/04/27 03:48:38;;;;;;;16.10;5.07;;;4.70;99.90;;;;;;4997181;28;20042;-60
2022/04/27 03:51:04;;;;;;;11.80;5.20;;;4.70;99.90;;;;;;5001290;28;20058;-61
2022/04/27 03:53:30;;;;;;;13.32;6.25;;;4.70;99.90;;;;;;4998822;28;20042;-61
2022/04/27 03:55:55;;;;;;;14.73;5.75;;;4.70;99.90;;;;;;4998891;28;20129;-61
2022/04/27 03:58:21;;;;;;;15.10;5.75;;;4.60;99.90;;;;;;4996599;28;20049;-61
2022/04/27 04:00:47;;;;;;;14.90;5.38;;;4.60;99.90;;;;;;4995199;28;20572;-62
2022/04/27 04:03:12;;;;;;;14.07;5.95;;;4.60;99.90;;;;;;4999523;28;20046;-61
2022/04/27 04:05:38;;;;;;;14.93;6.40;;;4.60;99.90;;;;;;5000333;28;20030;-61
2022/04/27 04:08:05;;;;;;;15.52;5.50;;;4.60;99.90;;;;;;4997155;28;20034;-61
2022/04/27 04:10:30;;;;;;;16.13;5.53;;;4.60;99.90;;;;;;4999731;28;20490;-63
2022/04/27 04:12:56;;;;;;;16.08;6.93;;;4.60;99.90;;;;;;4995535;28;20047;-61
2022/04/27 04:15:22;;;;;;;14.05;5.43;;;4.50;99.90;;;;;;4998201;28;20041;-61
2022/04/27 04:17:47;;;;;;;12.27;5.13;;;4.50;99.90;;;;;;4998022;28;20046;-61
2022/04/27 04:20:15;;;;;;;12.23;5.72;;;4.50;99.90;;;;;;4999783;28;20037;-61
2022/04/27 04:22:41;;;;;;;11.95;5.18;;;4.50;99.90;;;;;;4995646;28;20490;-61
2022/04/27 04:30:36;;;;;;;13.35;5.68;;;4.50;99.90;;;;;;4992850;28;20054;-60
2022/04/27 04:33:02;;;;;;;13.13;5.30;;;4.50;99.90;;;;;;4999182;28;20069;-61
2022/04/27 04:35:28;;;;;;;18.02;4.78;;;4.50;99.90;;;;;;4996815;28;20034;-62
2022/04/27 04:37:54;;;;;;;14.57;5.95;;;4.50;99.90;;;;;;4998585;28;20041;-60
2022/04/27 04:40:20;;;;;;;23.48;5.65;;;4.50;99.90;;;;;;4998031;28;20040;-61
2022/04/27 04:42:46;;;;;;;13.30;5.65;;;4.60;99.90;;;;;;4996207;28;20116;-61
2022/04/27 04:45:12;;;;;;;13.05;5.38;;;4.60;99.90;;;;;;4999642;28;20037;-60
2022/04/27 04:47:37;;;;;;;13.50;5.72;;;4.60;99.90;;;;;;4996356;28;20042;-61
2022/04/27 04:50:03;;;;;;;15.73;5.30;;;4.60;99.90;;;;;;4998808;28;20037;-61
2022/04/27 04:52:29;;;;;;;15.80;6.20;;;4.70;99.90;;;;;;4995801;28;20494;-61
2022/04/27 04:54:54;;;;;;;12.55;5.53;;;4.70;99.90;;;;;;4998590;28;20041;-61
2022/04/27 04:57:20;;;;;;;10.63;5.20;;;4.70;99.90;;;;;;4997854;28;20034;-61
2022/04/27 04:59:45;;;;;;;14.23;5.43;;;4.80;99.90;;;;;;4997465;28;20035;-61
2022/04/27 05:02:11;;;;;;;11.30;5.40;;;4.80;99.90;;;;;;4998861;28;20018;-61
2022/04/27 05:04:37;;;;;;;11.00;5.38;;;4.80;99.90;;;;;;4999673;28;20410;-61
2022/04/27 05:07:02;;;;;;;11.27;5.10;;;4.80;99.90;;;;;;4999764;28;20040;-62
2022/04/27 05:09:28;;;;;;;14.15;5.68;;;4.90;99.90;;;;;;4996697;28;20035;-61
2022/04/27 05:11:53;;;;;;;13.60;5.70;;;4.90;99.90;;;;;;4998450;28;20129;-61
2022/04/27 05:14:19;;;;;;;14.27;5.07;;;4.90;99.90;;;;;;4996751;28;20084;-63
2022/04/27 05:16:44;;;;;;;13.57;5.32;;;5.00;99.90;;;;;;4996588;28;20034;-60
2022/04/27 05:19:10;;;;;;;20.88;5.43;;;5.00;99.90;;;;;;4996280;28;20085;-61
2022/04/27 05:21:35;;;;;;;9.93;4.78;;;5.10;99.90;;;;;;4999569;28;20034;-61
2022/04/27 05:24:01;;;;;;;15.13;5.90;;;5.20;99.90;;;;;;4995519;28;20541;-61
2022/04/27 05:26:27;;;;;;;15.80;5.40;;;5.20;99.90;;;;;;4998582;28;20045;-60
2022/04/27 05:31:55;;;;;;;11.00;5.45;;;5.40;99.90;;;;;;4992677;28;20038;-61
2022/04/27 05:34:25;;;;;;;12.60;4.88;;;5.50;99.90;;;;;;4996034;28;20161;-61
2022/04/27 05:36:51;;;;;;;12.50;4.57;;;5.60;99.90;;;;;;4997031;28;20031;-61
2022/04/27 05:39:21;;;;;;;12.05;5.05;;;5.60;99.90;;;;;;4997522;28;20348;-62
2022/04/27 05:41:50;;;;;;;13.43;5.22;;;5.80;99.90;;;;;;4996849;28;20042;-61
2022/04/27 05:44:21;;;;;;;11.50;5.05;;;5.90;99.90;;;;;;4994595;28;20027;-60
2022/04/27 05:46:47;;;;;;;10.20;4.78;;;6.00;99.90;;;;;;4997391;28;20793;-61
2022/04/27 05:49:13;;;;;;;12.25;5.18;;;6.20;99.90;;;;;;4996189;28;20114;-60
2022/04/27 05:51:39;;;;;;;10.23;4.57;;;6.40;99.90;;;;;;4997569;28;20105;-61
2022/04/27 05:54:04;;;;;;;9.65;4.60;;;6.60;99.90;;;;;;4999101;28;20482;-61
2022/04/27 05:56:31;;;;;;;9.07;3.90;;;7.30;99.90;;;;;;4992293;28;20034;-61
2022/04/27 05:58:56;;;;;;;7.95;4.00;;;8.60;99.90;;;;;;5002425;28;20030;-60
2022/04/27 06:01:23;;;;;;;6.70;3.20;;;10.20;99.90;;;;;;4997852;28;20040;-61
2022/04/27 06:03:49;;;;;;;6.93;3.53;;;11.70;99.90;;;;;;4999305;28;20034;-61
2022/04/27 06:06:14;;;;;;;5.07;2.47;;;13.10;99.90;;;;;;5000497;28;20030;-61
2022/04/27 06:08:40;;;;;;;4.95;2.85;;;14.30;99.90;;;;;;5000364;28;20037;-61
2022/04/27 06:11:05;;;;;;;6.95;2.88;;;15.20;99.90;;;;;;5001783;28;20030;-62
2022/04/27 06:13:31;;;;;;;7.22;3.08;;;16.20;99.90;;;;;;4998476;28;20658;-62
2022/04/27 06:15:57;;;;;;;5.30;2.85;;;16.90;99.90;;;;;;5001948;28;20033;-61
2022/04/27 06:18:22;;;;;;;5.63;2.38;;;17.80;99.90;;;;;;4999539;28;20401;-62
2022/04/27 06:20:48;;;;;;;7.53;2.55;;;18.40;98.70;;;;;;4997883;28;20037;-62
2022/04/27 06:23:14;;;;;;;3.67;2.28;;;18.70;96.90;;;;;;4999249;28;20517;-62
2022/04/27 06:25:41;;;;;;;7.05;2.55;;;18.90;96.30;;;;;;5000170;28;20061;-62
2022/04/27 06:28:07;;;;;;;4.15;2.08;;;19.40;94.40;;;;;;4999025;28;20039;-61
2022/04/27 06:30:35;;;;;;;7.20;2.33;;;20.00;92.80;;;;;;5000577;28;20048;-62
2022/04/27 06:33:02;;;;;;;3.47;2.15;;;20.30;90.60;;;;;;4997958;28;20087;-62
2022/04/27 06:35:28;;;;;;;5.80;2.53;;;20.20;90.50;;;;;;5001686;28;20050;-62
2022/04/27 06:37:53;;;;;;;5.10;1.58;;;20.50;89.90;;;;;;4999415;28;20065;-62
2022/04/27 06:40:19;;;;;;;3.95;1.63;;;20.80;87.30;;;;;;4998020;28;20045;-60
2022/04/27 06:42:45;;;;;;;4.50;1.55;;;21.00;85.00;;;;;;4998890;28;20057;-60
2022/04/27 06:45:11;;;;;;;5.13;1.92;;;21.00;81.40;;;;;;4999371;28;20026;-63
2022/04/27 06:47:37;;;;;;;5.00;2.10;;;20.80;81.30;;;;;;5001686;28;20058;-64
2022/04/27 06:50:04;;;;;;;3.45;2.03;;;20.80;81.70;;;;;;5002026;28;20072;-62
2022/04/27 06:52:29;;;;;;;3.88;1.70;;;20.30;81.50;;;;;;4996687;28;20490;-60
2022/04/27 06:54:55;;;;;;;2.75;1.70;;;20.70;80.20;;;;;;5001967;28;20084;-61
2022/04/27 06:57:20;;;;;;;3.83;1.75;;;20.10;81.30;;;;;;4998717;28;20422;-63
2022/04/27 06:59:46;;;;;;;9.38;1.70;;;19.80;80.20;;;;;;5001094;28;20041;-61
2022/04/27 07:02:14;;;;;;;3.60;1.40;;;18.70;82.60;;;;;;4999852;28;20121;-61
2022/04/27 07:04:41;;;;;;;11.30;1.95;;;18.20;84.70;;;;;;4998943;28;20478;-60
2022/04/27 07:07:07;;;;;;;6.13;1.73;;;17.60;86.00;;;;;;5000025;28;20030;-60
2022/04/27 07:09:33;;;;;;;5.18;2.28;;;17.30;87.10;;;;;;4998973;28;20061;-60
2022/04/27 07:11:59;;;;;;;3.72;1.33;;;17.10;87.00;;;;;;5001009;28;20506;-60
2022/04/27 07:14:25;;;;;;;5.22;1.80;;;16.60;88.10;;;;;;5004938;28;20034;-61
2022/04/27 07:16:50;;;;;;;3.35;1.38;;;16.80;89.20;;;;;;4998976;28;20026;-61
2022/04/27 07:19:16;;;;;;;4.00;1.17;;;16.70;88.70;;;;;;4999874;28;20162;-63
2022/04/27 07:21:43;;;;;;;4.13;1.42;;;17.40;90.10;;;;;;4999551;28;20096;-61
2022/04/27 07:24:09;;;;;;;3.30;1.60;;;18.50;86.10;;;;;;4997964;28;20037;-60
2022/04/27 07:26:35;;;;;;;4.18;1.70;;;18.70;83.90;;;;;;5000472;28;20033;-61
2022/04/27 07:29:01;;;;;;;3.33;1.27;;;18.20;84.30;;;;;;4996907;28;20070;-61
2022/04/27 07:31:27;;;;;;;3.63;1.30;;;17.50;85.70;;;;;;5001081;28;20038;-60
2022/04/27 07:33:53;;;;;;;3.60;1.55;;;17.10;86.40;;;;;;4997779;28;20046;-60
2022/04/27 07:36:19;;;;;;;3.47;1.65;;;17.50;88.40;;;;;;5000345;28;20148;-60
2022/04/27 07:38:45;;;;;;;6.03;1.30;;;18.10;87.20;;;;;;4999011;28;20133;-60
2022/04/27 07:41:10;;;;;;;6.10;1.60;;;17.80;85.90;;;;;;4998543;28;20030;-60
2022/04/27 07:43:36;;;;;;;3.00;1.38;;;16.90;87.60;;;;;;4996205;28;20116;-61
2022/04/27 07:46:05;;;;;;;7.03;1.90;;;16.20;90.10;;;;;;5000184;28;20525;-61
2022/04/27 07:48:32;;;;;;;3.85;1.10;;;15.60;90.70;;;;;;4997382;28;20061;-60
2022/04/27 07:51:02;;;;;;;6.97;1.50;;;14.90;91.70;;;;;;4996636;28;20034;-60
2022/04/27 07:53:28;;;;;;;2.47;1.17;;;14.50;92.70;;;;;;4992968;28;20041;-60
2022/04/27 07:55:54;;;;;;;5.82;1.20;;;14.10;93.90;;;;;;4991797;28;20030;-61
2022/04/27 07:58:20;;;;;;;2.72;1.20;;;13.70;95.40;;;;;;4999986;28;20029;-61
2022/04/27 08:00:46;;;;;;;4.50;1.38;;;13.50;96.10;;;;;;4997403;28;20517;-61
2022/04/27 08:03:12;;;;;;;6.97;1.13;;;13.30;96.00;;;;;;4997646;28;20049;-62
2022/04/27 08:05:38;;;;;;;3.50;1.33;;;13.30;96.50;;;;;;4997677;28;20033;-59
2022/04/27 08:08:05;;;;;;;4.95;1.50;;;13.30;96.40;;;;;;4996660;28;20034;-61
2022/04/27 08:10:31;;;;;;;3.40;1.08;;;13.20;96.30;;;;;;4999558;28;20041;-63
2022/04/27 08:12:57;;;;;;;3.08;1.48;;;13.30;96.40;;;;;;4995888;28;20490;-61
2022/04/27 08:15:26;;;;;;;4.47;1.25;;;13.40;96.40;;;;;;4999438;28;20528;-61
2022/04/27 08:18:03;;;;;;;4.45;1.10;;;13.30;96.90;;;;;;4992952;28;20117;-62
2022/04/27 08:23:22;;;;;;;3.28;0.98;;;13.20;95.20;;;;;;4995806;28;20568;-60
2022/04/27 08:25:49;;;;;;;5.97;0.73;;;13.20;95.90;;;;;;4999560;28;20033;-62
2022/04/27 08:28:16;;;;;;;3.83;0.80;;;13.10;95.00;;;;;;4996825;28;20038;-61
2022/04/27 08:30:43;;;;;;;2.00;0.55;;;12.80;94.90;;;;;;4998824;28;20045;-62
2022/04/27 08:33:09;;;;;;;2.38;0.70;;;12.80;95.80;;;;;;4996781;28;20065;-62
2022/04/27 08:35:36;;;;;;;3.05;0.82;;;12.70;96.00;;;;;;4997839;28;20038;-62
2022/04/27 08:38:03;;;;;;;2.55;0.80;;;12.50;96.20;;;;;;4996326;28;20038;-61
2022/04/27 08:40:30;;;;;;;3.67;0.68;;;12.40;96.00;;;;;;4998621;28;20109;-61
2022/04/27 08:42:57;;;;;;;3.83;0.70;;;12.30;96.10;;;;;;4995901;28;20031;-63
2022/04/27 08:45:23;;;;;;;3.10;0.77;;;12.30;94.60;;;;;;5000456;28;20039;-58
2022/04/27 08:47:50;;;;;;;2.67;0.52;;;12.20;95.00;;;;;;5000178;28;20048;-62
2022/04/27 08:50:20;;;;;;;5.50;0.65;;;12.10;94.10;;;;;;4994335;28;20022;-60
2022/04/27 08:52:47;;;;;;;3.35;0.93;;;12.10;94.40;;;;;;4995875;28;20042;-60
2022/04/27 08:55:14;;;;;;;4.15;0.50;;;12.20;94.30;;;;;;4998182;28;20125;-59
2022/04/27 08:57:40;;;;;;;1.02;0.50;;;12.20;93.80;;;;;;4997906;28;20121;-59
2022/04/27 09:00:14;;;;;;;2.58;0.82;;;12.20;94.00;;;;;;4994503;28;20037;-60
2022/04/27 09:02:40;;;;;;;2.10;0.50;;;12.20;93.90;;;;;;4996404;28;20950;-59
2022/04/27 09:05:17;;;;;;;3.22;1.00;;;12.10;93.80;;;;;;4999690;28;20030;-60
2022/04/27 09:07:52;;;;;;;4.82;1.25;;;12.10;94.30;;;;;;4995646;28;20060;-60
2022/04/27 09:10:22;;;;;;;1.92;0.45;;;12.20;93.00;;;;;;4997694;28;20026;-64
2022/04/27 09:12:50;;;;;;;2.33;0.55;;;12.30;93.40;;;;;;4994454;28;20049;-60
2022/04/27 09:15:21;;;;;;;2.58;0.60;;;12.30;92.80;;;;;;4995498;28;20088;-60
2022/04/27 09:20:46;;;;;;;1.52;0.40;;;12.40;92.60;;;;;;4995641;28;20069;-62
2022/04/27 09:23:40;;;;;;;0.93;0.32;;;12.50;92.40;;;;;;4995674;28;20038;-60
2022/04/27 09:26:18;;;;;;;0.90;0.40;;;12.60;92.10;;;;;;4993684;28;20461;-60
2022/04/27 09:28:53;;;;;;;1.55;0.20;;;12.80;92.30;;;;;;4998821;28;20092;-60
2022/04/27 09:31:30;;;;;;;1.48;0.30;;;13.10;91.40;;;;;;4992763;28;20039;-59
2022/04/27 09:37:14;;;;;;;1.65;0.50;;;13.60;90.10;;;;;;4959245;28;20039;-60
2022/04/27 09:39:41;;;;;;;0.75;0.30;;;13.80;88.10;;;;;;4959204;28;20046;-61
2022/04/27 09:42:09;;;;;;;1.65;0.30;;;14.00;88.30;;;;;;4980907;28;20018;-59
2022/04/27 09:44:39;;;;;;;3.05;0.55;;;14.20;87.30;;;;;;5000335;28;20034;-60
2022/04/27 09:47:06;;;;;;;0.95;0.30;;;14.30;86.40;;;;;;5001431;28;20069;-60
2022/04/27 09:49:34;;;;;;;2.22;0.40;;;14.50;87.60;;;;;;5000107;28;20445;-60
2022/04/27 09:52:01;;;;;;;1.92;0.40;;;14.70;83.10;;;;;;4999804;28;20046;-60
2022/04/27 09:54:31;;;;;;;1.85;0.30;;;14.70;84.60;;;;;;5000946;28;20060;-59
2022/04/27 09:57:00;;;;;;;1.38;0.40;;;14.80;84.40;;;;;;5000485;28;20056;-59
2022/04/27 09:59:31;;;;;;;2.30;0.43;;;15.00;86.20;;;;;;5001954;28;20038;-64
2022/04/27 10:02:11;;;;;;;2.70;0.43;;;15.20;83.40;;;;;;4999711;28;20372;-60
2022/04/27 10:04:37;;;;;;;1.73;0.73;;;15.40;84.40;;;;;;4999379;28;20056;-61
2022/04/27 10:07:05;;;;;;;2.17;0.50;;;15.40;82.60;;;;;;4998109;28;20033;-60
2022/04/27 10:09:32;;;;;;;3.90;0.60;;;15.50;82.40;;;;;;4997769;28;20065;-61
2022/04/27 10:12:01;;;;;;;0.73;0.40;;;15.70;81.80;;;;;;5001230;28;20141;-59
2022/04/27 10:14:27;;;;;;;1.90;0.40;;;15.30;82.60;;;;;;4999125;28;20085;-61
2022/04/27 10:16:53;;;;;;;3.42;1.00;;;15.20;83.70;;;;;;5001608;28;20405;-60
2022/04/27 10:19:20;;;;;;;2.05;0.50;;;15.10;84.00;;;;;;5002322;28;20087;-60
2022/04/27 10:21:56;;;;;;;4.68;0.80;;;15.10;83.20;;;;;;4994947;28;20030;-60
2022/04/27 10:24:34;;;;;;;3.25;0.50;;;15.10;83.60;;;;;;4999564;28;20128;-60
2022/04/27 10:27:13;;;;;;;1.27;0.50;;;14.90;85.70;;;;;;5004946;28;20125;-59
2022/04/27 10:29:39;;;;;;;3.08;0.50;;;14.80;86.20;;;;;;5001203;28;20418;-61
2022/04/27 10:32:05;;;;;;;1.33;0.63;;;14.60;86.90;;;;;;4999968;28;20042;-60
2022/04/27 10:34:33;;;;;;;3.10;0.90;;;14.30;86.00;;;;;;4999969;28;20464;-61
2022/04/27 10:37:00;;;;;;;8.38;0.82;;;14.30;86.70;;;;;;4998262;28;20057;-59
2022/04/27 10:39:32;;;;;;;2.33;0.85;;;14.20;88.20;;;;;;5000893;28;20088;-60
2022/04/27 10:42:04;;;;;;;2.55;0.80;;;14.10;87.50;;;;;;4999425;28;20060;-60
2022/04/27 10:44:48;;;;;;;1.85;0.65;;;14.10;87.80;;;;;;4999147;28;20038;-60
2022/04/27 10:47:18;;;;;;;1.13;0.70;;;13.90;87.90;;;;;;4994292;28;20759;-60
2022/04/27 10:49:47;;;;;;;;;;;13.90;87.80;;;;;;4995527;28;20513;-60
2022/04/27 10:52:12;;;;;;;3.92;0.65;;;14.00;87.80;;;;;;5000927;28;19964;-59
2022/04/27 10:54:39;;;;;;;2.10;0.68;;;13.90;87.50;;;;;;4998711;28;20112;-60
2022/04/27 10:57:14;;;;;;;2.42;0.80;;;14.10;86.70;;;;;;5000532;28;20034;-61
2022/04/27 10:59:49;;;;;;;1.00;0.60;;;14.20;85.80;;;;;;4998856;28;20036;-60
2022/04/27 11:02:38;;;;;;;2.35;0.75;;;14.30;84.90;;;;;;4994402;28;20061;-60
2022/04/27 11:05:19;;;;;;;3.83;0.80;;;14.40;84.40;;;;;;4994186;28;20073;-59
2022/04/27 11:07:53;;;;;;;4.68;0.50;;;14.60;84.30;;;;;;4993657;28;20045;-60
2022/04/27 11:10:21;;;;;;;3.13;0.55;;;15.00;84.20;;;;;;4994841;28;20081;-60
2022/04/27 11:12:49;;;;;;;3.70;0.60;;;15.10;83.60;;;;;;5001150;28;20049;-60
2022/04/27 11:15:23;;;;;;;1.75;0.82;;;15.10;82.70;;;;;;4997815;28;20039;-61
2022/04/27 11:17:59;;;;;;;4.28;1.25;;;15.30;83.80;;;;;;4995903;28;20042;-59
2022/04/27 11:20:34;;;;;;;6.43;1.38;;;15.30;80.50;;;;;;4997499;28;20034;-61
2022/04/27 11:23:03;;;;;;;2.25;0.60;;;15.50;81.00;;;;;;4997968;28;20035;-60
2022/04/27 11:25:31;;;;;;;1.83;0.52;;;15.40;80.30;;;;;;5000829;28;20046;-60
2022/04/27 11:27:57;;;;;;;1.60;0.75;;;15.50;80.50;;;;;;4998217;28;20120;-59
2022/04/27 11:30:24;;;;;;;2.97;0.73;;;15.50;79.50;;;;;;4998645;28;20442;-61
2022/04/27 11:32:51;;;;;;;4.65;0.90;;;15.50;84.70;;;;;;4999674;28;20485;-60
2022/04/27 11:35:17;;;;;;;4.95;1.05;;;15.40;85.40;;;;;;4997827;28;20037;-59
2022/04/27 11:37:43;;;;;;;4.97;0.85;;;15.20;86.50;;;;;;4999768;28;20038;-60
2022/04/27 11:40:13;;;;;;;4.47;0.90;;;14.90;87.60;;;;;;4996694;28;20545;-62
2022/04/27 11:42:43;;;;;;;;;;;14.80;89.30;;;;;;5000342;28;20080;-60
2022/04/27 11:45:10;;;;;;;4.57;1.27;;;14.80;89.00;;;;;;5001081;28;20020;-59
2022/04/27 11:47:35;;;;;;;3.95;1.08;;;14.80;89.50;;;;;;4997519;28;20045;-60
2022/04/27 11:50:03;;;;;;;11.02;1.00;;;14.90;90.10;;;;;;4999984;28;20031;-61
2022/04/27 11:52:36;;;;;;;2.97;0.98;;;14.70;88.10;;;;;;4997561;28;20061;-60
2022/04/27 11:55:08;;;;;;;5.25;0.85;;;14.60;88.90;;;;;;4996440;28;20029;-61
2022/04/27 11:57:34;;;;;;;3.22;0.95;;;14.50;89.20;;;;;;4997282;28;20026;-61
2022/04/27 12:00:02;;;;;;;7.25;1.65;;;14.60;89.70;;;;;;4999635;28;20034;-60
2022/04/27 12:02:28;;;;;;;6.43;1.08;;;14.60;89.80;;;;;;4997897;28;20034;-60
2022/04/27 12:04:58;;;;;;;4.10;0.85;;;14.60;89.10;;;;;;4998757;28;20085;-60
2022/04/27 12:07:24;;;;;;;12.82;1.63;;;14.70;88.60;;;;;;4998099;28;20401;-60
2022/04/27 12:10:00;;;;;;;2.38;0.70;;;14.90;89.50;;;;;;4997950;28;20030;-60
2022/04/27 12:12:31;;;;;;;3.53;0.82;;;14.90;89.50;;;;;;4997780;28;20128;-59
2022/04/27 12:15:03;;;;;;;3.75;1.00;;;15.00;90.10;;;;;;4998753;28;20046;-62
2022/04/27 12:17:50;;;;;;;6.13;1.50;;;14.90;88.40;;;;;;5000128;28;20034;-60
2022/04/27 12:20:38;;;;;;;4.70;1.00;;;15.00;89.50;;;;;;4993750;28;20034;-60
2022/04/27 12:23:30;;;;;;;8.32;1.00;;;15.00;88.80;;;;;;4996712;28;20074;-59
2022/04/27 12:25:58;;;;;;;2.35;0.88;;;15.20;88.00;;;;;;4988817;28;20038;-61
2022/04/27 12:28:32;;;;;;;1.15;0.60;;;15.10;87.60;;;;;;4998184;28;20174;-60
2022/04/27 12:31:09;;;;;;;3.13;0.80;;;15.30;86.90;;;;;;4996615;28;20038;-60
2022/04/27 12:33:43;;;;;;;6.95;1.05;;;15.20;85.70;;;;;;4998710;28;20042;-62
2022/04/27 12:39:07;;;;;;;5.25;1.08;;;15.20;86.70;;;;;;4996061;28;20030;-60
2022/04/27 12:41:44;;;;;;;8.93;1.02;;;15.10;87.00;;;;;;4996631;28;20036;-60
2022/04/27 12:44:14;;;;;;;8.57;1.52;;;14.90;87.70;;;;;;4995691;28;20077;-61
2022/04/27 12:47:00;;;;;;;6.13;0.80;;;14.90;87.20;;;;;;4991739;28;20125;-60
2022/04/27 12:49:27;;;;;;;3.60;0.90;;;14.70;85.60;;;;;;4995024;28;20414;-60
2022/04/27 12:51:54;;;;;;;5.50;1.33;;;14.70;85.60;;;;;;4998282;28;20038;-61
2022/04/27 12:54:30;;;;;;;5.13;1.10;;;14.50;85.40;;;;;;4999272;28;20037;-61
2022/04/27 12:56:59;;;;;;;11.75;1.42;;;14.40;86.80;;;;;;4998588;28;20613;-62
2022/04/27 12:59:25;;;;;;;3.22;0.90;;;14.40;87.90;;;;;;4997531;28;20038;-59
2022/04/27 13:02:02;;;;;;;3.03;0.88;;;14.20;87.60;;;;;;5000285;28;20033;-60
2022/04/27 13:04:28;;;;;;;4.18;0.80;;;14.40;88.80;;;;;;4996422;28;20546;-60
2022/04/27 13:06:54;;;;;;;3.45;0.90;;;14.60;87.40;;;;;;4997865;28;20119;-59
2022/04/27 13:12:04;;;;;;;4.35;1.02;;;15.00;85.30;;;;;;4996490;28;20030;-61
2022/04/27 13:14:30;;;;;;;2.85;0.95;;;15.20;87.70;;;;;;4994938;28;21110;-60
2022/04/27 13:16:56;;;;;;;2.90;0.68;;;15.20;85.10;;;;;;4998605;28;20547;-59
2022/04/27 13:19:23;;;;;;;4.35;0.95;;;15.20;84.70;;;;;;4996174;28;20086;-60